createdAt,value
2018-09-12T00:00:32.527Z,17.10
2018-09-12T00:03:02.298Z,17.03
2018-09-12T00:05:30.700Z,17.01
2018-09-12T00:07:59.113Z,17.01
2018-09-12T00:10:27.483Z,16.98
2018-09-12T00:12:55.880Z,16.91
2018-09-12T00:15:24.260Z,16.80
2018-09-12T00:17:52.639Z,16.76
2018-09-12T00:20:21.091Z,16.74
2018-09-12T00:22:49.489Z,16.74
2018-09-12T00:25:17.947Z,16.73
2018-09-12T00:27:46.358Z,16.71
2018-09-12T00:30:14.809Z,16.68
2018-09-12T00:32:43.173Z,16.72
2018-09-12T00:35:11.577Z,16.69
2018-09-12T00:37:40.051Z,16.68
2018-09-12T00:40:08.921Z,16.70
2018-09-12T00:42:37.304Z,16.67
2018-09-12T00:45:05.823Z,16.65
2018-09-12T00:47:34.216Z,16.66
2018-09-12T00:50:03.154Z,16.66
2018-09-12T00:52:31.609Z,16.66
2018-09-12T00:55:00.336Z,16.65
2018-09-12T00:57:28.710Z,16.67
2018-09-12T00:59:57.159Z,16.69
2018-09-12T01:02:25.639Z,16.66
2018-09-12T01:04:55.088Z,16.57
2018-09-12T01:07:23.568Z,16.45
2018-09-12T01:09:51.939Z,16.43
2018-09-12T01:12:20.326Z,16.37
2018-09-12T01:14:48.712Z,16.33
2018-09-12T01:17:17.216Z,16.28
2018-09-12T01:19:46.248Z,16.26
2018-09-12T01:22:15.208Z,16.27
2018-09-12T01:24:43.632Z,16.28
2018-09-12T01:27:12.007Z,16.23
2018-09-12T01:29:40.418Z,16.26
2018-09-12T01:32:09.488Z,16.26
2018-09-12T01:34:37.905Z,16.21
2018-09-12T01:37:06.336Z,16.13
2018-09-12T01:39:34.760Z,16.09
2018-09-12T01:42:03.146Z,16.12
2018-09-12T01:44:31.921Z,16.12
2018-09-12T01:47:00.356Z,16.01
2018-09-12T01:49:28.787Z,16.03
2018-09-12T01:51:57.186Z,16.07
2018-09-12T01:54:25.677Z,16.07
2018-09-12T01:56:54.052Z,16.04
2018-09-12T01:59:22.497Z,16.07
2018-09-12T02:01:50.905Z,15.98
2018-09-12T02:04:19.288Z,15.98
2018-09-12T02:06:47.696Z,16.00
2018-09-12T02:09:16.289Z,15.97
2018-09-12T02:11:44.709Z,15.88
2018-09-12T02:14:13.120Z,15.88
2018-09-12T02:16:41.556Z,15.85
2018-09-12T02:19:09.964Z,15.83
2018-09-12T02:21:38.360Z,15.82
2018-09-12T02:24:06.470Z,15.82
2018-09-12T02:26:34.995Z,15.78
2018-09-12T02:29:03.456Z,15.77
2018-09-12T02:31:31.833Z,15.74
2018-09-12T02:34:00.266Z,15.62
2018-09-12T02:36:29.751Z,15.62
2018-09-12T02:38:59.572Z,15.66
2018-09-12T02:41:28.036Z,15.64
2018-09-12T02:43:56.448Z,15.64
2018-09-12T02:46:24.871Z,15.60
2018-09-12T02:48:53.453Z,15.62
2018-09-12T02:51:21.821Z,15.64
2018-09-12T02:53:50.228Z,15.56
2018-09-12T02:56:19.111Z,15.55
2018-09-12T02:58:48.928Z,15.56
2018-09-12T03:01:19.192Z,15.57
2018-09-12T03:03:47.603Z,15.49
2018-09-12T03:06:16.008Z,15.46
2018-09-12T03:08:44.409Z,15.45
2018-09-12T03:11:12.842Z,15.49
2018-09-12T03:13:41.228Z,15.50
2018-09-12T03:16:09.677Z,15.50
2018-09-12T03:18:38.127Z,15.45
2018-09-12T03:21:07.654Z,15.38
2018-09-12T03:23:35.942Z,15.38
2018-09-12T03:26:04.323Z,15.34
2018-09-12T03:28:32.758Z,15.31
2018-09-12T03:31:01.156Z,15.27
2018-09-12T03:33:29.563Z,15.23
2018-09-12T03:35:57.982Z,15.21
2018-09-12T03:38:26.381Z,15.18
2018-09-12T03:40:54.772Z,15.25
2018-09-12T03:43:23.177Z,15.30
2018-09-12T03:45:51.557Z,15.38
2018-09-12T03:48:19.970Z,15.43
2018-09-12T03:50:48.656Z,15.25
2018-09-12T03:53:17.095Z,15.23
2018-09-12T03:55:45.520Z,15.27
2018-09-12T03:58:13.981Z,15.27
2018-09-12T04:00:42.389Z,15.23
2018-09-12T04:03:10.797Z,15.18
2018-09-12T04:05:39.256Z,15.19
2018-09-12T04:08:07.639Z,15.19
2018-09-12T04:10:36.700Z,15.19
2018-09-12T04:13:05.134Z,15.22
2018-09-12T04:15:33.523Z,15.23
2018-09-12T04:18:01.951Z,15.21
2018-09-12T04:20:30.349Z,15.20
2018-09-12T04:22:58.802Z,15.20
2018-09-12T04:25:27.213Z,15.20
2018-09-12T04:27:56.076Z,15.17
2018-09-12T04:30:24.633Z,15.20
2018-09-12T04:32:52.992Z,15.15
2018-09-12T04:35:21.395Z,15.13
2018-09-12T04:37:49.837Z,15.10
2018-09-12T04:40:18.254Z,15.10
2018-09-12T04:42:46.703Z,15.11
2018-09-12T04:45:15.097Z,15.16
2018-09-12T04:47:43.488Z,15.17
2018-09-12T04:50:11.855Z,15.16
2018-09-12T04:52:40.289Z,15.17
2018-09-12T04:55:09.560Z,15.15
2018-09-12T04:57:37.920Z,15.13
2018-09-12T05:00:06.471Z,15.14
2018-09-12T05:02:35.050Z,15.11
2018-09-12T05:05:03.456Z,15.10
2018-09-12T05:07:32.033Z,15.08
2018-09-12T05:10:00.465Z,15.02
2018-09-12T05:12:28.848Z,14.98
2018-09-12T05:14:57.459Z,14.99
2018-09-12T05:17:25.856Z,15.01
2018-09-12T05:19:54.252Z,15.02
2018-09-12T05:22:22.617Z,14.97
2018-09-12T05:24:51.417Z,14.95
2018-09-12T05:27:19.814Z,14.91
2018-09-12T05:29:48.312Z,14.95
2018-09-12T05:32:16.692Z,14.98
2018-09-12T05:34:45.095Z,14.92
2018-09-12T05:37:13.723Z,14.93
2018-09-12T05:39:42.641Z,14.92
2018-09-12T05:42:11.028Z,14.96
2018-09-12T05:44:40.407Z,15.00
2018-09-12T05:47:08.832Z,15.02
2018-09-12T05:49:37.263Z,15.06
2018-09-12T05:52:05.809Z,15.10
2018-09-12T05:54:34.239Z,15.11
2018-09-12T05:57:03.451Z,15.14
2018-09-12T05:59:31.864Z,15.14
2018-09-12T06:02:00.265Z,15.18
2018-09-12T06:04:28.682Z,14.93
2018-09-12T06:06:57.145Z,15.19
2018-09-12T06:09:25.561Z,15.23
2018-09-12T06:11:53.993Z,15.24
2018-09-12T06:14:22.433Z,15.28
2018-09-12T06:16:50.802Z,15.32
2018-09-12T06:19:19.240Z,15.38
2018-09-12T06:21:47.648Z,15.44
2018-09-12T06:24:16.065Z,15.47
2018-09-12T06:26:44.562Z,15.49
2018-09-12T06:29:12.964Z,15.53
2018-09-12T06:31:41.340Z,15.59
2018-09-12T06:34:10.320Z,15.60
2018-09-12T06:36:38.786Z,15.63
2018-09-12T06:39:09.634Z,15.64
2018-09-12T06:41:38.064Z,15.66
2018-09-12T06:44:06.560Z,15.69
2018-09-12T06:46:35.112Z,15.74
2018-09-12T06:49:04.681Z,15.80
2018-09-12T06:51:33.186Z,15.86
2018-09-12T06:54:01.710Z,15.94
2018-09-12T06:56:30.202Z,16.02
2018-09-12T06:58:58.663Z,16.09
2018-09-12T07:01:27.064Z,16.17
2018-09-12T07:03:55.427Z,16.29
2018-09-12T07:06:23.954Z,16.36
2018-09-12T07:08:52.358Z,16.41
2018-09-12T07:11:20.767Z,16.46
2018-09-12T07:13:49.167Z,16.52
2018-09-12T07:16:17.563Z,16.57
2018-09-12T07:18:45.978Z,16.65
2018-09-12T07:21:14.432Z,16.73
2018-09-12T07:23:42.840Z,16.77
2018-09-12T07:26:11.257Z,16.81
2018-09-12T07:28:39.600Z,16.84
2018-09-12T07:31:08.036Z,16.86
2018-09-12T07:33:36.504Z,16.87
2018-09-12T07:36:04.964Z,16.87
2018-09-12T07:38:33.381Z,16.93
2018-09-12T07:41:01.846Z,16.93
2018-09-12T07:43:30.240Z,16.93
2018-09-12T07:45:58.689Z,16.93
2018-09-12T07:48:27.115Z,17.01
2018-09-12T07:50:57.032Z,17.10
2018-09-12T07:53:25.440Z,17.14
2018-09-12T07:55:53.969Z,17.18
2018-09-12T07:58:22.332Z,17.25
2018-09-12T08:00:50.759Z,17.41
2018-09-12T08:03:19.197Z,17.40
2018-09-12T08:05:47.621Z,17.51
2018-09-12T08:08:16.042Z,17.55
2018-09-12T08:10:44.464Z,17.37
2018-09-12T08:13:12.885Z,17.57
2018-09-12T08:15:41.413Z,17.69
2018-09-12T08:18:09.788Z,17.84
2018-09-12T08:20:38.281Z,18.01
2018-09-12T08:23:06.919Z,17.99
2018-09-12T08:25:35.310Z,18.03
2018-09-12T08:28:03.756Z,17.99
2018-09-12T08:30:32.829Z,17.94
2018-09-12T08:33:02.139Z,17.89
2018-09-12T08:35:31.301Z,17.88
2018-09-12T08:37:59.686Z,17.99
2018-09-12T08:40:28.074Z,17.98
2018-09-12T08:42:56.484Z,17.98
2018-09-12T08:45:24.944Z,17.92
2018-09-12T08:47:53.443Z,17.90
2018-09-12T08:50:23.999Z,18.03
2018-09-12T08:52:53.614Z,18.10
2018-09-12T08:55:22.035Z,18.14
2018-09-12T08:57:50.531Z,18.11
2018-09-12T09:00:19.635Z,18.21
2018-09-12T09:02:48.041Z,18.38
2018-09-12T09:05:16.544Z,18.29
2018-09-12T09:07:44.992Z,18.39
2018-09-12T09:10:13.470Z,18.45
2018-09-12T09:12:41.905Z,18.58
2018-09-12T09:15:10.300Z,18.67
2018-09-12T09:17:38.701Z,18.71
2018-09-12T09:20:07.221Z,18.72
2018-09-12T09:22:35.664Z,18.67
2018-09-12T09:25:04.355Z,18.73
2018-09-12T09:27:32.817Z,18.76
2018-09-12T09:30:01.324Z,18.93
2018-09-12T09:32:29.704Z,18.96
2018-09-12T09:34:58.148Z,19.05
2018-09-12T09:37:26.475Z,19.06
2018-09-12T09:39:54.903Z,19.09
2018-09-12T09:42:23.349Z,19.29
2018-09-12T09:44:52.214Z,19.18
2018-09-12T09:47:20.649Z,19.13
2018-09-12T09:49:51.724Z,19.25
2018-09-12T09:52:20.141Z,19.08
2018-09-12T09:54:48.607Z,19.61
2018-09-12T09:57:17.005Z,19.68
2018-09-12T09:59:45.509Z,19.55
2018-09-12T10:03:22.940Z,19.49
2018-09-12T10:05:56.681Z,19.52
2018-09-12T10:08:28.746Z,19.51
2018-09-12T10:10:57.525Z,19.52
2018-09-12T10:13:25.996Z,19.56
2018-09-12T10:15:54.465Z,19.60
2018-09-12T10:18:22.896Z,19.62
2018-09-12T10:20:51.348Z,19.74
2018-09-12T10:23:21.827Z,19.73
2018-09-12T10:25:50.427Z,19.82
2018-09-12T10:28:19.008Z,19.82
2018-09-12T10:30:47.456Z,19.88
2018-09-12T10:33:16.089Z,19.98
2018-09-12T10:35:44.538Z,20.03
2018-09-12T10:38:12.916Z,20.19
2018-09-12T10:40:41.706Z,20.25
2018-09-12T10:43:10.309Z,20.38
2018-09-12T10:45:38.728Z,20.46
2018-09-12T10:48:07.376Z,20.58
2018-09-12T10:50:35.792Z,20.48
2018-09-12T10:53:04.216Z,20.62
2018-09-12T10:55:32.890Z,20.58
2018-09-12T10:58:01.315Z,20.44
2018-09-12T11:00:29.828Z,20.42
2018-09-12T11:02:58.240Z,20.57
2018-09-12T11:05:26.744Z,20.59
2018-09-12T11:07:55.165Z,20.62
2018-09-12T11:10:24.132Z,20.59
2018-09-12T11:12:52.526Z,20.59
2018-09-12T11:15:20.919Z,20.55
2018-09-12T11:17:49.352Z,20.53
2018-09-12T11:20:17.800Z,20.77
2018-09-12T11:22:46.244Z,20.81
2018-09-12T11:25:14.642Z,20.71
2018-09-12T11:27:43.062Z,20.67
2018-09-12T11:30:11.500Z,20.67
2018-09-12T11:32:39.947Z,20.59
2018-09-12T11:35:09.192Z,20.55
2018-09-12T11:37:37.577Z,20.63
2018-09-12T11:40:06.037Z,20.77
2018-09-12T11:42:34.420Z,20.80
2018-09-12T11:45:03.326Z,20.80
2018-09-12T11:47:31.762Z,20.89
2018-09-12T11:50:01.970Z,21.02
2018-09-12T11:52:31.485Z,21.10
2018-09-12T11:55:01.135Z,21.26
2018-09-12T11:57:30.295Z,21.31
2018-09-12T11:59:58.873Z,21.35
2018-09-12T12:02:27.332Z,21.44
2018-09-12T12:04:55.741Z,21.60
2018-09-12T12:07:24.186Z,21.80
2018-09-12T12:09:52.683Z,21.77
2018-09-12T12:12:21.105Z,21.83
2018-09-12T12:14:49.607Z,21.73
2018-09-12T12:17:18.657Z,21.63
2018-09-12T12:19:47.277Z,21.60
2018-09-12T12:22:15.685Z,21.62
2018-09-12T12:24:45.075Z,21.73
2018-09-12T12:27:13.499Z,22.09
2018-09-12T12:29:41.944Z,22.38
2018-09-12T12:32:10.339Z,22.11
2018-09-12T12:34:38.818Z,22.02
2018-09-12T12:37:07.229Z,22.00
2018-09-12T12:39:35.580Z,21.83
2018-09-12T12:42:04.030Z,21.83
2018-09-12T12:44:32.796Z,21.79
2018-09-12T12:47:01.506Z,21.91
2018-09-12T12:49:30.049Z,22.13
2018-09-12T12:51:59.261Z,22.27
2018-09-12T12:54:27.709Z,22.19
2018-09-12T12:56:56.255Z,22.12
2018-09-12T12:59:24.693Z,22.01
2018-09-12T13:01:53.088Z,21.80
2018-09-12T13:04:21.621Z,21.63
2018-09-12T13:06:50.043Z,21.49
2018-09-12T13:09:18.481Z,21.40
2018-09-12T13:11:46.929Z,21.32
2018-09-12T13:14:15.375Z,21.23
2018-09-12T13:16:44.045Z,21.16
2018-09-12T13:19:12.529Z,21.08
2018-09-12T13:21:41.066Z,21.04
2018-09-12T13:24:09.359Z,21.02
2018-09-12T13:26:37.792Z,21.00
2018-09-12T13:29:06.300Z,20.94
2018-09-12T13:31:34.787Z,20.88
2018-09-12T13:34:03.189Z,20.84
2018-09-12T13:36:31.631Z,20.80
2018-09-12T13:39:00.105Z,20.77
2018-09-12T13:41:28.530Z,20.66
2018-09-12T13:43:56.962Z,20.52
2018-09-12T13:46:25.398Z,20.39
2018-09-12T13:48:53.820Z,20.21
2018-09-12T13:51:22.250Z,20.09
2018-09-12T13:53:50.680Z,19.99
2018-09-12T13:56:19.305Z,19.80
2018-09-12T13:58:47.753Z,19.69
2018-09-12T14:01:16.204Z,19.67
2018-09-12T14:03:44.922Z,19.60
2018-09-12T14:06:13.426Z,19.57
2018-09-12T14:08:41.931Z,19.44
2018-09-12T14:11:10.347Z,19.33
2018-09-12T14:13:38.757Z,19.33
2018-09-12T14:16:07.491Z,19.25
2018-09-12T14:18:36.964Z,19.25
2018-09-12T14:21:05.378Z,19.29
2018-09-12T14:23:33.827Z,19.32
2018-09-12T14:26:02.244Z,19.27
2018-09-12T14:28:30.729Z,19.21
2018-09-12T14:30:59.295Z,19.15
2018-09-12T14:33:27.766Z,19.19
2018-09-12T14:35:56.224Z,19.12
2018-09-12T14:38:25.488Z,19.07
2018-09-12T14:40:53.885Z,19.05
2018-09-12T14:43:22.273Z,19.02
2018-09-12T14:45:50.726Z,19.11
2018-09-12T14:48:19.126Z,19.02
2018-09-12T14:50:47.543Z,18.96
2018-09-12T14:53:15.917Z,18.79
2018-09-12T14:55:44.458Z,18.71
2018-09-12T14:58:12.853Z,18.77
2018-09-12T15:00:41.541Z,18.79
2018-09-12T15:03:10.094Z,18.78
2018-09-12T15:05:38.582Z,18.54
2018-09-12T15:08:07.024Z,18.36
2018-09-12T15:10:35.492Z,18.32
2018-09-12T15:13:03.885Z,18.16
2018-09-12T15:15:32.321Z,18.09
2018-09-12T15:18:01.753Z,18.23
2018-09-12T15:20:30.176Z,18.27
2018-09-12T15:22:58.684Z,18.22
2018-09-12T15:25:27.183Z,18.13
2018-09-12T15:27:55.631Z,18.05
2018-09-12T15:30:24.064Z,17.80
2018-09-12T15:32:52.567Z,17.83
2018-09-12T15:35:21.128Z,17.61
2018-09-12T15:37:49.557Z,17.51
2018-09-12T15:40:18.001Z,17.51
2018-09-12T15:42:46.449Z,17.33
2018-09-12T15:45:14.940Z,17.38
2018-09-12T15:47:43.358Z,17.51
2018-09-12T15:50:11.878Z,17.70
2018-09-12T15:52:40.929Z,17.62
2018-09-12T15:55:09.450Z,17.48
2018-09-12T15:57:37.855Z,17.48
2018-09-12T16:00:06.427Z,17.18
2018-09-12T16:02:34.928Z,17.01
2018-09-12T16:05:03.701Z,17.06
2018-09-12T16:07:32.315Z,17.27
2018-09-12T16:10:00.840Z,17.35
2018-09-12T16:12:29.274Z,17.36
2018-09-12T16:14:58.093Z,17.36
2018-09-12T16:17:26.502Z,17.42
2018-09-12T16:19:55.108Z,17.52
2018-09-12T16:22:23.688Z,17.51
2018-09-12T16:24:52.159Z,17.58
2018-09-12T16:27:21.800Z,17.58
2018-09-12T16:29:50.265Z,17.62
2018-09-12T16:32:18.768Z,17.60
2018-09-12T16:34:47.248Z,17.43
2018-09-12T16:37:15.631Z,17.39
2018-09-12T16:39:44.017Z,17.42
2018-09-12T16:42:12.517Z,17.52
2018-09-12T16:44:40.953Z,17.33
2018-09-12T16:47:09.381Z,17.33
2018-09-12T16:49:37.840Z,17.05
2018-09-12T16:52:06.303Z,17.01
2018-09-12T16:54:34.747Z,16.98
2018-09-12T16:57:03.228Z,16.80
2018-09-12T16:59:31.654Z,16.78
2018-09-12T17:02:00.061Z,16.78
2018-09-12T17:04:28.486Z,16.85
2018-09-12T17:06:56.897Z,16.85
2018-09-12T17:09:25.370Z,16.75
2018-09-12T17:11:53.855Z,16.74
2018-09-12T17:14:22.887Z,16.70
2018-09-12T17:16:51.295Z,16.71
2018-09-12T17:19:20.862Z,16.76
2018-09-12T17:21:49.645Z,16.80
2018-09-12T17:24:18.016Z,16.78
2018-09-12T17:26:46.446Z,16.63
2018-09-12T17:29:14.920Z,16.67
2018-09-12T17:31:43.375Z,16.70
2018-09-12T17:34:11.809Z,16.71
2018-09-12T17:36:40.315Z,16.71
2018-09-12T17:39:09.687Z,16.63
2018-09-12T17:41:38.108Z,16.69
2018-09-12T17:44:06.619Z,16.67
2018-09-12T17:46:35.136Z,16.59
2018-09-12T17:49:03.694Z,16.45
2018-09-12T17:51:32.496Z,16.38
2018-09-12T17:54:01.492Z,16.40
2018-09-12T17:56:29.968Z,16.52
2018-09-12T17:58:58.417Z,16.55
2018-09-12T18:01:26.862Z,16.63
2018-09-12T18:03:55.374Z,16.65
2018-09-12T18:06:23.812Z,16.60
2018-09-12T18:08:52.229Z,16.60
2018-09-12T18:11:21.280Z,16.53
2018-09-12T18:13:49.772Z,16.48
2018-09-12T18:16:18.241Z,16.46
2018-09-12T18:18:46.848Z,16.41
2018-09-12T18:21:15.357Z,16.46
2018-09-12T18:23:44.446Z,16.50
2018-09-12T18:26:12.912Z,16.47
2018-09-12T18:28:41.350Z,16.53
2018-09-12T18:31:09.813Z,16.58
2018-09-12T18:33:38.241Z,16.58
2018-09-12T18:36:06.895Z,16.42
2018-09-12T18:38:35.481Z,16.41
2018-09-12T18:41:03.908Z,16.46
2018-09-12T18:43:32.410Z,16.43
2018-09-12T18:46:00.852Z,16.31
2018-09-12T18:48:29.310Z,16.38
2018-09-12T18:50:57.842Z,16.46
2018-09-12T18:53:26.265Z,16.51
2018-09-12T18:55:54.778Z,16.49
2018-09-12T18:58:23.250Z,16.47
2018-09-12T19:00:51.656Z,16.48
2018-09-12T19:03:20.140Z,16.50
2018-09-12T19:05:49.288Z,16.53
2018-09-12T19:08:17.738Z,16.58
2018-09-12T19:10:46.165Z,16.57
2018-09-12T19:13:14.658Z,16.38
2018-09-12T19:15:43.037Z,16.21
2018-09-12T19:18:11.519Z,16.14
2018-09-12T19:20:39.900Z,16.25
2018-09-12T19:23:08.403Z,16.21
2018-09-12T19:25:36.816Z,16.21
2018-09-12T19:28:05.298Z,16.10
2018-09-12T19:30:34.674Z,16.07
2018-09-12T19:33:03.076Z,16.11
2018-09-12T19:35:31.513Z,16.06
2018-09-12T19:37:59.911Z,16.18
2018-09-12T19:40:28.349Z,16.15
2018-09-12T19:42:56.787Z,16.20
2018-09-12T19:45:25.244Z,16.28
2018-09-12T19:47:53.719Z,16.21
2018-09-12T19:50:22.341Z,16.21
2018-09-12T19:52:50.777Z,16.18
2018-09-12T19:55:19.545Z,16.19
2018-09-12T19:57:48.008Z,16.11
2018-09-12T20:00:18.051Z,16.18
2018-09-12T20:02:46.557Z,16.21
2018-09-12T20:05:15.046Z,16.20
2018-09-12T20:07:43.556Z,16.21
2018-09-12T20:10:12.021Z,16.22
2018-09-12T20:12:40.520Z,16.17
2018-09-12T20:15:08.984Z,16.16
2018-09-12T20:17:37.983Z,16.18
2018-09-12T20:20:06.810Z,16.15
2018-09-12T20:22:35.320Z,16.17
2018-09-12T20:25:03.785Z,16.11
2018-09-12T20:27:32.248Z,16.15
2018-09-12T20:30:00.719Z,16.09
2018-09-12T20:32:29.926Z,16.05
2018-09-12T20:34:58.380Z,16.09
2018-09-12T20:37:26.784Z,16.10
2018-09-12T20:39:55.192Z,16.08
2018-09-12T20:42:23.586Z,16.11
2018-09-12T20:44:51.995Z,16.13
2018-09-12T20:47:20.440Z,16.11
2018-09-12T20:49:48.955Z,16.13
2018-09-12T20:52:18.324Z,16.14
2018-09-12T20:54:46.776Z,16.11
2018-09-12T20:57:16.129Z,16.09
2018-09-12T20:59:45.520Z,16.12
2018-09-12T21:02:13.962Z,16.15
2018-09-12T21:04:42.381Z,16.18
2018-09-12T21:07:10.850Z,16.18
2018-09-12T21:09:39.329Z,16.10
2018-09-12T21:12:08.080Z,16.07
2018-09-12T21:14:36.563Z,16.03
2018-09-12T21:17:05.011Z,15.98
2018-09-12T21:19:34.855Z,15.88
2018-09-12T21:22:03.289Z,15.83
2018-09-12T21:24:31.771Z,15.85
2018-09-12T21:27:01.167Z,15.81
2018-09-12T21:29:29.695Z,15.81
2018-09-12T21:31:58.111Z,15.83
2018-09-12T21:34:26.913Z,15.74
2018-09-12T21:36:56.205Z,15.78
2018-09-12T21:39:24.573Z,15.77
2018-09-12T21:41:57.168Z,15.80
2018-09-12T21:44:25.573Z,15.81
2018-09-12T21:46:53.957Z,15.81
2018-09-12T21:49:22.392Z,15.79
2018-09-12T21:51:52.719Z,15.72
2018-09-12T21:54:24.211Z,15.72
2018-09-12T21:56:52.814Z,15.71
2018-09-12T21:59:25.990Z,15.72
2018-09-12T22:01:54.846Z,15.66
2018-09-12T22:04:23.356Z,15.67
2018-09-12T22:06:51.786Z,15.64
2018-09-12T22:09:20.215Z,15.55
2018-09-12T22:11:48.697Z,15.53
2018-09-12T22:14:17.106Z,15.64
2018-09-12T22:16:45.571Z,15.61
2018-09-12T22:19:13.988Z,15.55
2018-09-12T22:21:42.397Z,15.52
2018-09-12T22:24:10.839Z,15.46
2018-09-12T22:26:39.645Z,15.49
2018-09-12T22:29:08.686Z,15.52
2018-09-12T22:31:37.048Z,15.48
2018-09-12T22:34:13.219Z,15.48
2018-09-12T22:36:44.840Z,15.50
2018-09-12T22:39:13.257Z,15.53
2018-09-12T22:41:41.684Z,15.57
2018-09-12T22:44:10.087Z,15.58
2018-09-12T22:46:38.560Z,15.56
2018-09-12T22:49:06.958Z,15.60
2018-09-12T22:51:35.354Z,15.55
2018-09-12T22:54:04.041Z,15.57
2018-09-12T22:56:32.423Z,15.62
2018-09-12T22:59:00.942Z,15.64
2018-09-12T23:01:30.327Z,15.67
2018-09-12T23:03:58.765Z,15.62
2018-09-12T23:06:27.186Z,15.63
2018-09-12T23:08:55.669Z,15.64
2018-09-12T23:11:24.086Z,15.66
2018-09-12T23:13:52.550Z,15.62
2018-09-12T23:16:20.916Z,15.58
2018-09-12T23:18:49.924Z,15.52
2018-09-12T23:21:18.333Z,15.51
2018-09-12T23:23:46.713Z,15.53
2018-09-12T23:26:15.152Z,15.53
2018-09-12T23:28:43.571Z,15.55
2018-09-12T23:31:12.007Z,15.62
2018-09-12T23:33:40.748Z,15.60
2018-09-12T23:36:09.143Z,15.62
2018-09-12T23:38:37.589Z,15.62
2018-09-12T23:41:06.357Z,15.64
2018-09-12T23:43:35.166Z,15.63
2018-09-12T23:46:03.559Z,15.63
2018-09-12T23:48:32.287Z,15.64
2018-09-12T23:51:00.695Z,15.62
2018-09-12T23:53:29.325Z,15.62
2018-09-12T23:55:57.748Z,15.60
2018-09-12T23:58:27.037Z,15.52
